Time;durP1;ratioP1;P1;durP2;ratioP2;P2;SDS_P1;SDS_P2;PMS_P1;PMS_P2;Temp;Humidity;BMP_temperature;BMP_pressure;BME280_temperature;BME280_humidity;BME280_pressure;Samples;Min_cycle;Max_cycle;Signal;HPM_P1;HPM_P2
2023/10/23 00:01:11;;;;;;;;;;;;;;;20.17;57.82;100799.19;5039770;28;6092;-78
2023/10/23 00:03:37;;;;;;;;;;;;;;;20.18;57.80;100809.31;5037669;28;2184;-78
2023/10/23 00:06:04;;;;;;;;;;;;;;;20.20;57.91;100805.78;5040965;28;2205;-77
2023/10/23 00:08:30;;;;;;;;;;;;;;;20.18;57.77;100803.56;5038020;28;2241;-77
2023/10/23 00:10:57;;;;;;;;;;;;;;;20.17;57.72;100812.84;5040859;28;2106;-78
2023/10/23 00:13:23;;;;;;;;;;;;;;;20.17;57.87;100809.97;5040196;28;2138;-77
2023/10/23 00:15:50;;;;;;;;;;;;;;;20.18;57.91;100814.31;5041937;28;2062;-78
2023/10/23 00:18:16;;;;;;;;;;;;;;;20.17;57.72;100807.09;5039998;28;2335;-77
2023/10/23 00:20:42;;;;;;;;;;;;;;;20.17;57.85;100809.97;5039674;28;2157;-77
2023/10/23 00:23:09;;;;;;;;;;;;;;;20.16;57.90;100806.34;5022253;28;2136;-78
2023/10/23 00:25:35;;;;;;;;;;;;;;;20.17;57.92;100804.94;5023241;28;2157;-78
2023/10/23 00:28:02;;;;;;;;;;;;;;;20.16;57.69;100811.34;5040543;28;2100;-78
2023/10/23 00:30:32;;;;;;;;;;;;;;;20.16;57.76;100805.59;5038766;28;7274;-76
2023/10/23 00:32:58;;;;;;;;;;;;;;;20.16;57.88;100817.84;5038765;28;2072;-78
2023/10/23 00:35:25;;;;;;;;;;;;;;;20.15;57.83;100810.59;5039694;28;2205;-78
2023/10/23 00:37:51;;;;;;;;;;;;;;;20.15;57.83;100815.63;5037925;28;2134;-78
2023/10/23 00:40:18;;;;;;;;;;;;;;;20.15;57.71;100810.59;5022241;28;2142;-78
2023/10/23 00:42:44;;;;;;;;;;;;;;;20.16;57.89;100811.34;5038838;28;2225;-77
2023/10/23 00:45:10;;;;;;;;;;;;;;;20.16;57.83;100812.09;5039211;28;2158;-77
2023/10/23 00:47:37;;;;;;;;;;;;;;;20.14;57.83;100814.88;5040402;28;2309;-78
2023/10/23 00:50:03;;;;;;;;;;;;;;;20.15;57.95;100813.47;5021249;28;2138;-78
2023/10/23 00:52:30;;;;;;;;;;;;;;;20.14;57.85;100812.00;5039369;28;2114;-77
2023/10/23 00:54:56;;;;;;;;;;;;;;;20.15;57.90;100812.75;5022168;28;2210;-78
2023/10/23 00:57:23;;;;;;;;;;;;;;;20.14;57.86;100808.41;5021498;28;2165;-78
2023/10/23 00:59:49;;;;;;;;;;;;;;;20.13;57.71;100813.38;5023381;28;2233;-77
2023/10/23 01:02:16;;;;;;;;;;;;;;;20.14;57.88;100806.25;5021884;28;6219;-78
2023/10/23 01:04:42;;;;;;;;;;;;;;;20.14;57.59;100814.16;5022838;28;2135;-77
2023/10/23 01:07:09;;;;;;;;;;;;;;;20.16;57.88;100814.22;5020449;28;2280;-77
2023/10/23 01:09:35;;;;;;;;;;;;;;;20.15;57.70;100818.50;5022423;28;2206;-77
2023/10/23 01:12:02;;;;;;;;;;;;;;;20.13;57.68;100813.38;5038039;28;2662;-77
2023/10/23 01:14:28;;;;;;;;;;;;;;;20.16;57.49;100829.34;5040524;28;2605;-77
2023/10/23 01:16:55;;;;;;;;;;;;;;;20.15;57.84;100816.34;5021695;28;2216;-78
2023/10/23 01:19:21;;;;;;;;;;;;;;;20.14;57.65;100822.78;5037472;28;2193;-78
2023/10/23 01:21:48;;;;;;;;;;;;;;;20.14;57.65;100814.16;5040512;28;2078;-77
2023/10/23 01:24:14;;;;;;;;;;;;;;;20.14;57.76;100820.63;5040015;28;2255;-77
2023/10/23 01:26:40;;;;;;;;;;;;;;;20.13;57.66;100829.91;5038250;28;2133;-77
2023/10/23 01:29:07;;;;;;;;;;;;;;;20.13;57.81;100818.41;5031929;28;2140;-78
2023/10/23 01:31:33;;;;;;;;;;;;;;;20.13;57.84;100830.63;5032885;28;6327;-78
2023/10/23 01:34:00;;;;;;;;;;;;;;;20.13;57.83;100829.91;5022953;28;2154;-78
2023/10/23 01:36:26;;;;;;;;;;;;;;;20.12;57.63;100834.16;5021157;28;2218;-77
2023/10/23 01:38:53;;;;;;;;;;;;;;;20.10;57.88;100837.69;5037752;28;2145;-77
2023/10/23 01:41:20;;;;;;;;;;;;;;;20.13;57.62;100842.13;5039213;28;2093;-79
2023/10/23 01:43:46;;;;;;;;;;;;;;;20.13;57.77;100842.13;5036269;28;2106;-77
2023/10/23 01:46:12;;;;;;;;;;;;;;;20.13;57.54;100841.41;5020987;28;2164;-78
2023/10/23 01:48:39;;;;;;;;;;;;;;;20.13;57.66;100841.41;5022613;28;2023;-77
2023/10/23 01:51:06;;;;;;;;;;;;;;;20.12;57.57;100839.91;5021819;28;2110;-77
2023/10/23 01:53:32;;;;;;;;;;;;;;;20.12;57.87;100842.78;5025741;28;2129;-77
2023/10/23 01:56:04;;;;;;;;;;;;;;;20.09;57.91;100836.94;5042088;28;2137;-78
2023/10/23 01:58:30;;;;;;;;;;;;;;;20.08;57.85;100835.44;5023077;28;2166;-78
2023/10/23 02:00:56;;;;;;;;;;;;;;;20.10;57.86;100831.94;5023771;28;6327;-77
2023/10/23 02:03:23;;;;;;;;;;;;;;;20.08;57.85;100835.44;5024552;28;2304;-78
2023/10/23 02:05:50;;;;;;;;;;;;;;;20.12;57.60;100843.53;5042426;28;2101;-78
2023/10/23 02:08:21;;;;;;;;;;;;;;;20.11;57.66;100838.41;5037816;28;2272;-78
2023/10/23 02:10:47;;;;;;;;;;;;;;;20.12;57.86;100839.91;5040360;28;2156;-78
2023/10/23 02:13:14;;;;;;;;;;;;;;;20.09;57.86;100830.47;5040601;28;2165;-77
2023/10/23 02:15:40;;;;;;;;;;;;;;;20.08;57.61;100835.44;5022119;28;2047;-77
2023/10/23 02:18:07;;;;;;;;;;;;;;;20.07;57.82;100842.59;5022780;28;2124;-78
2023/10/23 02:20:34;;;;;;;;;;;;;;;20.07;57.87;100841.88;5042249;28;2091;-79
2023/10/23 02:23:00;;;;;;;;;;;;;;;20.07;57.89;100844.75;5040967;28;1910;-78
2023/10/23 02:25:26;;;;;;;;;;;;;;;20.05;57.69;100836.00;5041785;28;2129;-78
2023/10/23 02:27:53;;;;;;;;;;;;;;;20.05;57.83;100836.75;5039792;28;2156;-78
2023/10/23 02:30:19;;;;;;;;;;;;;;;20.06;57.61;100846.13;5040726;28;6149;-78
2023/10/23 02:32:46;;;;;;;;;;;;;;;20.06;57.68;100848.97;5021683;28;2236;-78
2023/10/23 02:35:12;;;;;;;;;;;;;;;20.06;57.54;100854.72;5040079;28;2154;-78
2023/10/23 02:37:39;;;;;;;;;;;;;;;20.04;57.88;100858.28;5022327;28;2225;-77
2023/10/23 02:40:05;;;;;;;;;;;;;;;20.04;57.82;100864.03;5041050;28;2142;-77
2023/10/23 02:42:32;;;;;;;;;;;;;;;20.05;57.75;100870.50;5039939;28;2129;-78
2023/10/23 02:44:59;;;;;;;;;;;;;;;20.05;57.74;100874.13;5041177;28;2137;-78
2023/10/23 02:47:25;;;;;;;;;;;;;;;20.05;57.79;100877.00;5039459;28;2109;-77
2023/10/23 02:49:52;;;;;;;;;;;;;;;20.04;57.65;100881.28;5020843;28;2218;-77
2023/10/23 02:52:19;;;;;;;;;;;;;;;20.05;57.61;100882.00;5039432;28;2266;-77
2023/10/23 02:54:45;;;;;;;;;;;;;;;20.05;57.65;100871.25;5041706;28;2145;-77
2023/10/23 02:57:12;;;;;;;;;;;;;;;20.07;57.45;100882.84;5039825;28;2398;-78
2023/10/23 02:59:38;;;;;;;;;;;;;;;20.08;57.68;100881.44;5023638;28;2099;-77
2023/10/23 03:02:05;;;;;;;;;;;;;;;20.11;57.57;100884.41;5022656;28;6151;-78
2023/10/23 03:04:32;;;;;;;;;;;;;;;20.11;57.64;100888.03;5024266;28;2125;-78
2023/10/23 03:06:59;;;;;;;;;;;;;;;20.12;57.64;100891.66;5017613;28;2142;-78
2023/10/23 03:09:25;;;;;;;;;;;;;;;20.13;57.62;100881.63;5020991;28;2098;-77
2023/10/23 03:11:52;;;;;;;;;;;;;;;20.12;57.67;100886.66;5041172;28;2098;-77
2023/10/23 03:14:18;;;;;;;;;;;;;;;20.12;57.50;100888.78;5023322;28;2111;-78
2023/10/23 03:16:45;;;;;;;;;;;;;;;20.12;57.66;100897.41;5020174;28;2130;-77
2023/10/23 03:19:11;;;;;;;;;;;;;;;20.13;57.60;100893.88;5039292;28;2120;-78
2023/10/23 03:21:38;;;;;;;;;;;;;;;20.12;57.53;100900.28;5024352;28;2085;-77
2023/10/23 03:24:04;;;;;;;;;;;;;;;20.12;57.74;100898.16;5024098;28;2035;-77
2023/10/23 03:26:31;;;;;;;;;;;;;;;20.12;57.67;100903.16;5017996;28;2452;-78
2023/10/23 03:28:57;;;;;;;;;;;;;;;20.13;57.83;100901.75;5039466;28;2200;-78
2023/10/23 03:31:24;;;;;;;;;;;;;;;20.15;57.87;100901.88;5038968;28;6031;-77
2023/10/23 03:33:51;;;;;;;;;;;;;;;20.15;57.98;100908.34;5024695;28;2141;-78
2023/10/23 03:36:18;;;;;;;;;;;;;;;20.15;58.06;100893.25;5038446;28;2152;-78
2023/10/23 03:38:46;;;;;;;;;;;;;;;20.16;57.72;100886.09;5039698;28;2051;-78
2023/10/23 03:41:13;;;;;;;;;;;;;;;20.18;57.81;100900.56;5040338;28;2184;-78
2023/10/23 03:43:40;;;;;;;;;;;;;;;20.17;57.84;100902.69;5037802;28;2145;-78
2023/10/23 03:46:07;;;;;;;;;;;;;;;20.17;58.02;100904.84;5041385;28;2234;-78
2023/10/23 03:48:35;;;;;;;;;;;;;;;20.18;58.07;100906.31;5038797;28;1928;-77
2023/10/23 03:51:01;;;;;;;;;;;;;;;20.17;57.95;100904.84;5039288;28;2182;-69
2023/10/23 03:53:28;;;;;;;;;;;;;;;20.17;58.06;100893.34;5040008;28;2112;-72
2023/10/23 03:55:54;;;;;;;;;;;;;;;20.16;58.26;100898.34;5041093;28;2201;-72
2023/10/23 03:58:21;;;;;;;;;;;;;;;20.15;58.02;100902.59;5019688;28;2606;-72
2023/10/23 04:00:50;;;;;;;;;;;;;;;20.15;58.11;100896.84;5020601;28;7255;-72
2023/10/23 04:03:17;;;;;;;;;;;;;;;20.16;57.76;100903.34;5039617;28;2135;-72
2023/10/23 04:05:43;;;;;;;;;;;;;;;20.17;58.09;100905.56;5021136;28;2256;-72
2023/10/23 04:08:10;;;;;;;;;;;;;;;20.16;58.11;100911.97;5019536;28;2107;-72
2023/10/23 04:10:36;;;;;;;;;;;;;;;20.16;57.99;100917.72;5040789;28;2388;-72
2023/10/23 04:13:02;;;;;;;;;;;;;;;20.17;58.16;100914.19;5039414;28;2015;-72
2023/10/23 04:15:29;;;;;;;;;;;;;;;20.18;58.23;100909.19;5039128;28;2283;-71
2023/10/23 04:17:55;;;;;;;;;;;;;;;20.19;58.25;100925.06;5021439;28;2106;-71
2023/10/23 04:20:22;;;;;;;;;;;;;;;20.18;58.19;100923.56;5022572;28;2169;-72
2023/10/23 04:22:48;;;;;;;;;;;;;;;20.18;58.03;100926.44;5036215;28;2195;-72
2023/10/23 04:25:14;;;;;;;;;;;;;;;20.19;58.02;100919.31;5039036;28;2303;-72
2023/10/23 04:27:41;;;;;;;;;;;;;;;20.19;58.16;100936.56;5038368;28;2117;-72
2023/10/23 04:30:08;;;;;;;;;;;;;;;20.19;58.20;100933.69;5023409;28;6063;-72
2023/10/23 04:32:35;;;;;;;;;;;;;;;20.18;57.93;100932.19;5038594;28;2166;-72
2023/10/23 04:35:01;;;;;;;;;;;;;;;20.18;57.89;100935.06;5037497;28;2169;-72
2023/10/23 04:37:28;;;;;;;;;;;;;;;20.17;58.06;100927.84;5036567;28;2231;-71
2023/10/23 04:39:54;;;;;;;;;;;;;;;20.16;58.03;100929.97;5039945;28;2458;-72
2023/10/23 04:42:21;;;;;;;;;;;;;;;20.16;58.30;100929.97;5035373;28;2132;-71
2023/10/23 04:44:50;;;;;;;;;;;;;;;20.17;58.40;100936.47;5040703;28;2188;-74
2023/10/23 04:47:16;;;;;;;;;;;;;;;20.24;58.68;100938.25;5037253;28;2183;-71
2023/10/23 04:49:43;;;;;;;;;;;;;;;20.24;59.07;100944.00;5035161;28;2424;-75
2023/10/23 04:52:09;;;;;;;;;;;;;;;20.29;59.27;100937.03;5001145;28;2282;-70
2023/10/23 04:54:35;;;;;;;;;;;;;;;20.28;59.30;100933.44;5035750;28;2588;-72
2023/10/23 04:57:03;;;;;;;;;;;;;;;20.28;59.47;100947.06;5038086;28;2157;-71
2023/10/23 04:59:29;;;;;;;;;;;;;;;20.23;59.52;100942.53;5038345;28;2176;-71
2023/10/23 05:01:55;;;;;;;;;;;;;;;20.19;59.24;100951.69;5036028;28;7281;-71
2023/10/23 05:04:22;;;;;;;;;;;;;;;20.15;58.24;100956.50;5038007;28;2418;-74
2023/10/23 05:06:48;;;;;;;;;;;;;;;18.80;50.39;100950.31;5036845;28;2180;-71
2023/10/23 05:09:15;;;;;;;;;;;;;;;18.56;48.38;100946.84;5036472;28;2251;-72
2023/10/23 05:11:42;;;;;;;;;;;;;;;18.29;47.47;100956.84;5036967;28;2129;-68
2023/10/23 05:14:08;;;;;;;;;;;;;;;18.98;49.81;100944.81;5038660;28;2137;-67
2023/10/23 05:16:34;;;;;;;;;;;;;;;19.24;48.87;100954.06;5039285;28;2373;-68
2023/10/23 05:19:01;;;;;;;;;;;;;;;19.21;48.29;100955.34;5040222;28;1628;-68
2023/10/23 05:21:27;;;;;;;;;;;;;;;19.47;49.27;100958.88;5041072;28;2262;-68
2023/10/23 05:23:54;;;;;;;;;;;;;;;19.63;49.77;100953.94;5043094;28;1903;-69
2023/10/23 05:26:21;;;;;;;;;;;;;;;19.74;49.35;100965.97;5044297;28;2110;-68
2023/10/23 05:28:50;;;;;;;;;;;;;;;19.80;49.63;100960.53;5045716;28;1963;-68
2023/10/23 05:31:16;;;;;;;;;;;;;;;19.83;50.42;100970.75;5044557;28;6228;-68
2023/10/23 05:33:42;;;;;;;;;;;;;;;19.84;50.69;100966.50;5045538;28;1605;-68
2023/10/23 05:36:12;;;;;;;;;;;;;;;19.85;51.19;100970.84;5042651;28;2161;-68
2023/10/23 05:38:38;;;;;;;;;;;;;;;19.86;51.76;100969.47;5044054;28;1977;-67
2023/10/23 05:41:08;;;;;;;;;;;;;;;19.89;51.75;100973.94;5045201;28;2110;-68
2023/10/23 05:43:35;;;;;;;;;;;;;;;19.89;52.15;100973.94;5041408;28;2205;-68
2023/10/23 05:46:01;;;;;;;;;;;;;;;19.89;52.53;100985.41;5024476;28;2236;-68
2023/10/23 05:48:28;;;;;;;;;;;;;;;19.87;52.92;100983.19;5043201;28;2157;-68
2023/10/23 05:51:01;;;;;;;;;;;;;;;19.90;52.81;100983.28;5044042;28;2071;-68
2023/10/23 05:53:27;;;;;;;;;;;;;;;19.88;53.17;100984.69;5042822;28;2147;-68
2023/10/23 05:55:54;;;;;;;;;;;;;;;19.88;53.23;100983.91;5043520;28;2142;-68
2023/10/23 05:58:20;;;;;;;;;;;;;;;19.88;53.56;100981.03;5043665;28;1973;-68
2023/10/23 06:00:46;;;;;;;;;;;;;;;19.87;53.52;100988.94;5042135;28;6839;-68
2023/10/23 06:03:13;;;;;;;;;;;;;;;19.89;53.64;100991.16;5042889;28;2214;-68
2023/10/23 06:05:40;;;;;;;;;;;;;;;19.88;53.78;100996.19;5042526;28;2154;-68
2023/10/23 06:08:08;;;;;;;;;;;;;;;19.89;54.16;100991.16;5041052;28;2175;-67
2023/10/23 06:10:41;;;;;;;;;;;;;;;19.92;54.01;100992.00;5042901;28;2204;-68
2023/10/23 06:13:07;;;;;;;;;;;;;;;19.90;54.29;100995.53;5042332;28;2300;-68
2023/10/23 06:15:34;;;;;;;;;;;;;;;19.91;54.26;100999.91;5044690;28;2071;-68
2023/10/23 06:18:01;;;;;;;;;;;;;;;19.93;54.43;101008.63;5044226;28;1800;-68
2023/10/23 06:20:28;;;;;;;;;;;;;;;19.94;54.68;101004.34;5026631;28;2266;-68
2023/10/23 06:22:54;;;;;;;;;;;;;;;19.96;54.46;101010.22;5043940;28;1642;-67
2023/10/23 06:25:20;;;;;;;;;;;;;;;20.00;54.56;101009.69;5044207;28;1679;-67
2023/10/23 06:27:47;;;;;;;;;;;;;;;20.03;54.65;101014.13;5043591;28;1910;-68
2023/10/23 06:30:13;;;;;;;;;;;;;;;20.04;55.48;101010.63;5042778;28;6488;-68
2023/10/23 06:32:40;;;;;;;;;;;;;;;20.03;55.14;101011.25;5042742;28;2487;-68
2023/10/23 06:35:06;;;;;;;;;;;;;;;20.04;55.44;101025.00;5043599;28;1488;-68
2023/10/23 06:37:33;;;;;;;;;;;;;;;20.04;55.91;101012.72;5043595;28;1944;-68
2023/10/23 06:39:59;;;;;;;;;;;;;;;20.06;55.49;101015.72;5042873;28;1577;-67
2023/10/23 06:42:26;;;;;;;;;;;;;;;20.05;55.68;101017.84;5043926;28;1583;-68
2023/10/23 06:44:53;;;;;;;;;;;;;;;20.06;55.73;101010.69;5026698;28;1938;-68
2023/10/23 06:47:21;;;;;;;;;;;;;;;20.07;56.13;101006.44;5043965;28;1643;-67
2023/10/23 06:49:47;;;;;;;;;;;;;;;20.08;56.15;101004.31;5025043;28;1914;-68
2023/10/23 06:52:14;;;;;;;;;;;;;;;20.08;55.74;101012.94;5044167;28;1626;-68
2023/10/23 06:54:40;;;;;;;;;;;;;;;20.06;56.50;101007.81;5042461;28;1642;-68
2023/10/23 06:57:07;;;;;;;;;;;;;;;19.92;55.21;101007.13;5043338;28;1649;-67
2023/10/23 06:59:33;;;;;;;;;;;;;;;19.78;53.63;101003.53;5044262;28;1706;-67
2023/10/23 07:02:03;;;;;;;;;;;;;;;19.74;52.49;101009.06;5043453;28;6008;-67
2023/10/23 07:04:29;;;;;;;;;;;;;;;19.69;52.23;101016.00;5042990;28;1677;-67
2023/10/23 07:06:56;;;;;;;;;;;;;;;19.59;52.14;101019.81;5041630;28;1931;-67
2023/10/23 07:09:22;;;;;;;;;;;;;;;19.73;51.93;101024.81;5024764;28;1911;-67
2023/10/23 07:11:51;;;;;;;;;;;;;;;19.82;51.95;101026.72;5042629;28;1721;-67
2023/10/23 07:14:18;;;;;;;;;;;;;;;19.82;52.37;101027.47;5043172;28;1625;-68
2023/10/23 07:16:47;;;;;;;;;;;;;;;19.92;52.78;101046.63;5041592;28;1606;-67
2023/10/23 07:19:14;;;;;;;;;;;;;;;19.96;53.07;101041.81;5043582;28;1723;-67
2023/10/23 07:21:41;;;;;;;;;;;;;;;20.00;53.00;101035.53;5043242;28;1705;-67
2023/10/23 07:24:07;;;;;;;;;;;;;;;20.04;53.38;101048.00;5040773;28;3148;-67
2023/10/23 07:26:34;;;;;;;;;;;;;;;20.06;53.47;101044.47;5042412;28;2272;-67
2023/10/23 07:29:00;;;;;;;;;;;;;;;20.08;53.58;101042.44;5043125;28;2341;-67
2023/10/23 07:31:27;;;;;;;;;;;;;;;20.09;53.74;101049.69;5041883;28;6472;-67
2023/10/23 07:33:53;;;;;;;;;;;;;;;20.12;53.87;101047.66;5042966;28;1741;-67
2023/10/23 07:36:20;;;;;;;;;;;;;;;20.14;54.17;101044.16;5042494;28;1566;-67
2023/10/23 07:38:46;;;;;;;;;;;;;;;20.13;54.55;101042.63;5042859;28;1861;-67
2023/10/23 07:41:12;;;;;;;;;;;;;;;20.12;54.72;101052.66;5043032;28;2378;-67
2023/10/23 07:43:39;;;;;;;;;;;;;;;20.11;54.85;101051.91;5042377;28;1840;-67
2023/10/23 07:46:06;;;;;;;;;;;;;;;20.12;55.00;101061.28;5043277;28;1766;-66
2023/10/23 07:48:42;;;;;;;;;;;;;;;20.14;55.01;101065.00;5042239;28;1930;-67
2023/10/23 07:51:09;;;;;;;;;;;;;;;20.14;55.04;101055.63;5043532;28;1582;-67
2023/10/23 07:53:35;;;;;;;;;;;;;;;20.14;55.06;101052.75;5041974;28;1651;-67
2023/10/23 07:56:04;;;;;;;;;;;;;;;20.17;55.10;101060.84;5043039;28;1793;-67
2023/10/23 07:58:30;;;;;;;;;;;;;;;20.18;55.21;101067.31;5042685;28;1834;-67
2023/10/23 08:01:00;;;;;;;;;;;;;;;20.16;55.36;101061.47;5042242;28;6257;-67
2023/10/23 08:03:27;;;;;;;;;;;;;;;20.15;55.08;101062.88;5042662;28;1650;-66
2023/10/23 08:05:53;;;;;;;;;;;;;;;20.15;55.59;101075.09;5042435;28;1877;-67
2023/10/23 08:08:20;;;;;;;;;;;;;;;20.17;55.83;101069.47;5042666;28;1914;-67
2023/10/23 08:10:46;;;;;;;;;;;;;;;20.16;55.78;101072.97;5040911;28;1569;-68
2023/10/23 08:13:13;;;;;;;;;;;;;;;20.15;55.86;101069.34;5042050;28;1647;-67
2023/10/23 08:15:41;;;;;;;;;;;;;;;20.16;55.95;101075.84;5040916;28;1658;-67
2023/10/23 08:18:08;;;;;;;;;;;;;;;20.16;55.93;101076.63;5042773;28;1883;-68
2023/10/23 08:20:47;;;;;;;;;;;;;;;20.18;56.33;101076.72;5041127;28;1621;-67
2023/10/23 08:23:14;;;;;;;;;;;;;;;20.18;56.02;101078.81;5041427;28;1769;-67
2023/10/23 08:25:41;;;;;;;;;;;;;;;20.18;56.00;101073.06;5041608;28;1618;-67
2023/10/23 08:28:08;;;;;;;;;;;;;;;20.18;56.02;101073.06;5037873;28;1969;-67
2023/10/23 08:30:34;;;;;;;;;;;;;;;20.19;56.29;101077.44;5040867;28;6638;-67
2023/10/23 08:33:01;;;;;;;;;;;;;;;20.20;56.14;101076.06;5040652;28;1860;-67
2023/10/23 08:35:28;;;;;;;;;;;;;;;20.20;55.87;101070.31;5042059;28;1564;-67
2023/10/23 08:37:54;;;;;;;;;;;;;;;20.21;56.21;101077.56;5040365;28;1814;-67
2023/10/23 08:40:21;;;;;;;;;;;;;;;20.24;56.06;101082.03;5040545;28;1803;-69
2023/10/23 08:42:48;;;;;;;;;;;;;;;20.15;56.16;101080.13;5039676;28;1966;-68
2023/10/23 08:45:15;;;;;;;;;;;;;;;19.85;56.17;101082.91;5041800;28;1851;-69
2023/10/23 08:47:41;;;;;;;;;;;;;;;19.63;56.23;101083.22;5043407;28;1934;-68
2023/10/23 08:50:08;;;;;;;;;;;;;;;19.64;56.01;101070.34;5040030;28;2300;-67
2023/10/23 08:52:35;;;;;;;;;;;;;;;19.83;56.17;101074.19;5041349;28;1580;-67
2023/10/23 08:55:02;;;;;;;;;;;;;;;20.01;56.38;101072.25;5023823;28;1669;-67
2023/10/23 08:57:29;;;;;;;;;;;;;;;20.12;56.69;101078.53;5041102;28;1868;-67
2023/10/23 08:59:55;;;;;;;;;;;;;;;20.00;56.67;101070.78;5026795;28;1645;-67
2023/10/23 09:02:22;;;;;;;;;;;;;;;19.91;56.42;101074.63;5045143;28;6135;-67
2023/10/23 09:04:48;;;;;;;;;;;;;;;20.05;56.51;101074.59;5044764;28;1630;-67
2023/10/23 09:07:14;;;;;;;;;;;;;;;20.14;56.59;101076.50;5046230;28;1745;-67
2023/10/23 09:09:41;;;;;;;;;;;;;;;20.17;57.09;101071.59;5041666;28;2416;-67
2023/10/23 09:12:07;;;;;;;;;;;;;;;20.22;57.05;101076.16;5043554;28;2404;-67
2023/10/23 09:14:35;;;;;;;;;;;;;;;20.23;57.42;101075.53;5042081;28;2316;-67
2023/10/23 09:17:05;;;;;;;;;;;;;;;20.23;57.59;101075.53;5044521;28;2397;-67
2023/10/23 09:19:34;;;;;;;;;;;;;;;20.21;57.71;101077.56;5044202;28;2300;-66
2023/10/23 09:22:01;;;;;;;;;;;;;;;20.20;58.16;101079.69;5041105;28;2354;-67
2023/10/23 09:24:27;;;;;;;;;;;;;;;20.21;57.79;101077.56;5042250;28;2291;-67
2023/10/23 09:26:54;;;;;;;;;;;;;;;20.18;57.91;101079.59;5042242;28;2408;-67
2023/10/23 09:29:21;;;;;;;;;;;;;;;20.15;57.73;101071.50;5043762;28;2497;-67
2023/10/23 09:31:48;;;;;;;;;;;;;;;20.16;57.92;101076.63;5043170;28;6116;-67
2023/10/23 09:34:14;;;;;;;;;;;;;;;20.16;57.86;101070.09;5043168;28;2272;-67
2023/10/23 09:36:41;;;;;;;;;;;;;;;20.19;58.12;101068.81;5043214;28;2322;-67
2023/10/23 09:39:07;;;;;;;;;;;;;;;20.20;58.12;101076.81;5027134;28;2443;-68
2023/10/23 09:41:34;;;;;;;;;;;;;;;20.25;58.36;101069.16;5041766;28;2135;-67
2023/10/23 09:44:00;;;;;;;;;;;;;;;20.25;58.15;101072.03;5024709;28;2229;-66
2023/10/23 09:46:27;;;;;;;;;;;;;;;20.27;58.38;101081.50;5043281;28;2541;-67
2023/10/23 09:48:55;;;;;;;;;;;;;;;20.27;58.53;101080.72;5044536;28;1971;-67
2023/10/23 09:51:30;;;;;;;;;;;;;;;20.26;58.29;101085.72;5043843;28;1590;-66
2023/10/23 09:53:59;;;;;;;;;;;;;;;20.27;58.50;101084.38;5045146;28;1575;-67
2023/10/23 09:56:30;;;;;;;;;;;;;;;20.27;58.36;101069.22;5043620;28;1715;-69
2023/10/23 09:59:00;;;;;;;;;;;;;;;20.27;58.20;101072.88;5044302;28;1809;-69
2023/10/23 10:01:31;;;;;;;;;;;;;;;20.26;58.45;101074.22;5027052;28;6125;-69
2023/10/23 10:03:57;;;;;;;;;;;;;;;20.27;58.26;101072.09;5043963;28;1614;-69
2023/10/23 10:06:24;;;;;;;;;;;;;;;20.25;58.42;101058.38;5027534;28;1732;-69
2023/10/23 10:08:51;;;;;;;;;;;;;;;20.26;58.32;101071.34;5044337;28;1917;-69
2023/10/23 10:11:18;;;;;;;;;;;;;;;20.29;58.41;101066.44;5042396;28;1650;-69
2023/10/23 10:13:44;;;;;;;;;;;;;;;20.27;58.38;101057.72;5044210;28;1695;-69
2023/10/23 10:16:10;;;;;;;;;;;;;;;20.28;58.21;101059.22;5043559;28;1642;-69
2023/10/23 10:18:37;;;;;;;;;;;;;;;20.28;58.18;101053.47;5044165;28;1638;-69
2023/10/23 10:21:05;;;;;;;;;;;;;;;20.29;58.47;101054.94;5027235;28;1707;-69
2023/10/23 10:23:31;;;;;;;;;;;;;;;20.29;58.54;101054.94;5027123;28;1588;-69
2023/10/23 10:25:57;;;;;;;;;;;;;;;20.29;58.37;101052.84;5043056;28;1688;-70
2023/10/23 10:28:25;;;;;;;;;;;;;;;20.29;58.29;101060.69;5023284;28;2477;-70
2023/10/23 10:30:51;;;;;;;;;;;;;;;20.20;57.98;101053.81;5042092;28;6102;-70
2023/10/23 10:33:22;;;;;;;;;;;;;;;19.77;57.63;101065.25;5044196;28;1789;-70
2023/10/23 10:36:09;;;;;;;;;;;;;;;19.78;57.35;101056.00;5043328;28;1737;-70
2023/10/23 10:38:36;;;;;;;;;;;;;;;19.92;57.03;101050.22;5042773;28;2216;-71
2023/10/23 10:41:03;;;;;;;;;;;;;;;20.08;57.10;101051.06;5042451;28;2004;-69
2023/10/23 10:43:33;;;;;;;;;;;;;;;20.15;57.42;101057.84;5042754;28;2111;-71
2023/10/23 10:46:00;;;;;;;;;;;;;;;20.20;57.40;101047.31;5023875;28;2330;-71
2023/10/23 10:48:39;;;;;;;;;;;;;;;20.21;57.53;101051.69;5040876;28;2211;-71
2023/10/23 10:51:06;;;;;;;;;;;;;;;20.23;57.40;101049.66;5043045;28;2122;-71
2023/10/23 10:53:32;;;;;;;;;;;;;;;20.23;57.63;101040.28;5003943;28;2168;-71
2023/10/23 10:55:58;;;;;;;;;;;;;;;20.23;57.53;101043.16;5042389;28;2165;-71
2023/10/23 10:58:25;;;;;;;;;;;;;;;20.25;57.44;101040.38;5041214;28;2207;-71
2023/10/23 11:00:51;;;;;;;;;;;;;;;20.26;57.89;101036.13;5024760;28;6141;-71
2023/10/23 11:03:18;;;;;;;;;;;;;;;20.26;57.61;101028.22;5042935;28;2118;-70
2023/10/23 11:05:45;;;;;;;;;;;;;;;20.26;57.45;101033.97;5042860;28;1789;-71
2023/10/23 11:08:11;;;;;;;;;;;;;;;20.27;57.54;101028.97;5044033;28;1867;-71
2023/10/23 11:10:38;;;;;;;;;;;;;;;20.28;57.52;101027.59;5042245;28;1946;-71
2023/10/23 11:13:04;;;;;;;;;;;;;;;20.28;57.82;101027.59;5043055;28;1733;-71
2023/10/23 11:15:31;;;;;;;;;;;;;;;20.28;57.60;101024.72;5041804;28;2036;-71
2023/10/23 11:17:57;;;;;;;;;;;;;;;20.28;58.00;101021.84;5043640;28;1602;-71
2023/10/23 11:20:28;;;;;;;;;;;;;;;20.27;57.67;101023.97;5041110;28;1813;-71
2023/10/23 11:22:54;;;;;;;;;;;;;;;20.27;57.48;101020.34;5042914;28;1859;-71
2023/10/23 11:25:20;;;;;;;;;;;;;;;20.28;57.87;101021.84;5042395;28;1729;-71
2023/10/23 11:27:49;;;;;;;;;;;;;;;20.28;57.60;101021.84;5043185;28;1590;-71
2023/10/23 11:30:15;;;;;;;;;;;;;;;20.28;57.65;101021.84;5041792;28;6265;-72
2023/10/23 11:32:44;;;;;;;;;;;;;;;20.28;57.53;101021.84;5042725;28;1791;-71
2023/10/23 11:35:10;;;;;;;;;;;;;;;20.29;57.90;101020.44;5042287;28;1651;-71
2023/10/23 11:37:40;;;;;;;;;;;;;;;20.29;57.64;101017.56;5042216;28;1894;-71
2023/10/23 11:40:07;;;;;;;;;;;;;;;20.29;57.71;101026.19;5043318;28;1912;-71
2023/10/23 11:42:43;;;;;;;;;;;;;;;20.30;57.93;101019.81;5041854;28;1856;-71
2023/10/23 11:45:11;;;;;;;;;;;;;;;20.29;57.79;101015.44;5025701;28;1614;-71
2023/10/23 11:47:38;;;;;;;;;;;;;;;20.28;57.96;101018.97;5041691;28;1786;-71
2023/10/23 11:50:06;;;;;;;;;;;;;;;20.29;57.69;101023.31;5041439;28;1975;-71
2023/10/23 11:52:33;;;;;;;;;;;;;;;20.32;57.59;101007.66;5024449;28;1599;-71
2023/10/23 11:55:00;;;;;;;;;;;;;;;20.33;57.85;101020.66;5042127;28;1653;-70
2023/10/23 11:57:26;;;;;;;;;;;;;;;20.33;57.63;101020.66;5040880;28;1583;-71
2023/10/23 11:59:53;;;;;;;;;;;;;;;20.30;57.88;101013.31;5042389;28;1770;-71
2023/10/23 12:02:19;;;;;;;;;;;;;;;20.33;57.91;101025.66;5024292;28;6228;-70
2023/10/23 12:04:46;;;;;;;;;;;;;;;20.32;57.93;101013.41;5042155;28;1613;-71
2023/10/23 12:07:12;;;;;;;;;;;;;;;20.33;57.96;101020.66;5041519;28;1598;-70
2023/10/23 12:09:39;;;;;;;;;;;;;;;20.34;57.70;101022.16;5040409;28;1905;-70
2023/10/23 12:12:05;;;;;;;;;;;;;;;20.37;57.84;101020.84;5042411;28;1641;-71
2023/10/23 12:14:32;;;;;;;;;;;;;;;20.34;57.72;101013.50;5041467;28;1602;-71
2023/10/23 12:16:58;;;;;;;;;;;;;;;20.41;58.03;101011.66;5041454;28;1892;-70
2023/10/23 12:19:25;;;;;;;;;;;;;;;20.44;57.65;101019.00;5040399;28;1622;-70
2023/10/23 12:21:51;;;;;;;;;;;;;;;20.39;57.95;101015.19;5040723;28;1933;-71
2023/10/23 12:24:18;;;;;;;;;;;;;;;20.23;57.85;101005.78;5040397;28;2193;-71
2023/10/23 12:26:44;;;;;;;;;;;;;;;20.13;57.24;101013.88;5039879;28;2202;-70
2023/10/23 12:29:12;;;;;;;;;;;;;;;20.15;56.88;101005.38;5042184;28;1910;-70
2023/10/23 12:31:39;;;;;;;;;;;;;;;20.23;56.59;101005.78;5040597;28;6212;-69
2023/10/23 12:34:25;;;;;;;;;;;;;;;20.32;56.61;101001.16;5042648;28;1503;-70
2023/10/23 12:36:52;;;;;;;;;;;;;;;20.35;57.08;101000.63;5041709;28;1729;-70
2023/10/23 12:39:18;;;;;;;;;;;;;;;20.33;57.24;101000.50;5041396;28;1578;-69
2023/10/23 12:41:45;;;;;;;;;;;;;;;20.34;57.29;100999.13;5041344;28;1796;-69
2023/10/23 12:44:11;;;;;;;;;;;;;;;20.35;57.13;100994.88;5042539;28;1784;-70
2023/10/23 12:46:38;;;;;;;;;;;;;;;20.40;57.16;100990.06;5040360;28;1639;-70